This is the latest recevied weather packets stored in our database for station/object JA6YCL-13. If no packets are shown the sender has not sent any weather packets the latest 1 day(s).
| Time | Temp. | Humidity | Pressure | Rain* | Wind** | Luminosity | Snow |
|---|---|---|---|---|---|---|---|
| 1778094283 | 12.78° C | 92% | 1016.1 hPa | 0 mm | - | - | - |
| 1778086155 | 13.33° C | 90% | 1016.6 hPa | 0 mm | - | - | - |
| 1778082171 | 13.89° C | 89% | 1017.1 hPa | 0 mm | - | - | - |
| 1778080423 | 14.44° C | 87% | 1017.6 hPa | 0 mm | - | - | - |
| 1778078921 | 14.44° C | 87% | 1017.8 hPa | 0 mm | - | - | - |
| 1778072280 | 16.67° C | 75% | 1017.7 hPa | 0 mm | - | - | - |
| 1778071485 | 17.22° C | 72% | 1017.7 hPa | 0 mm | - | - | - |
| 1778069835 | 17.22° C | 71% | 1017.6 hPa | 0 mm | - | - | - |
| 1778061677 | 20° C | 47% | 1016.5 hPa | 0 mm | - | - | - |
| 1778059423 | 20.56° C | 49% | 1016.6 hPa | 0 mm | - | - | - |
| 1778057930 | 20.56° C | 53% | 1016.5 hPa | 0 mm | - | - | - |
| 1778057164 | 20.56° C | 57% | 1016.6 hPa | 0 mm | - | - | - |
| 1778056443 | 20.56° C | 56% | 1016.7 hPa | 0 mm | - | - | - |
| 1778053963 | 21.11° C | 59% | 1016.6 hPa | 0 mm | - | - | - |
| 1778051558 | 21.11° C | 60% | 1016.9 hPa | 0 mm | - | - | - |
| 1778050664 | 21.11° C | 60% | 1016.8 hPa | 0 mm | - | - | - |
| 1778049926 | 21.11° C | 60% | 1016.8 hPa | 0 mm | - | - | - |
| 1778049038 | 21.67° C | 59% | 1017 hPa | 0 mm | - | - | - |
| 1778047508 | 21.67° C | 59% | 1016.7 hPa | 0 mm | - | - | - |
| 1778046046 | 22.78° C | 55% | 1016.7 hPa | 0 mm | - | - | - |
| 1778043626 | 22.78° C | 56% | 1016.4 hPa | 0 mm | - | - | - |
| 1778042853 | 22.22° C | 56% | 1016.9 hPa | 0 mm | - | - | - |
| 1778042008 | 22.22° C | 56% | 1017.1 hPa | 0 mm | - | - | - |
| 1778040328 | 23.33° C | 53% | 1017.5 hPa | 0 mm | - | - | - |
| 1778039566 | 22.78° C | 54% | 1017.6 hPa | 0 mm | - | - | - |
* Rain latest hour (hover to see other rain measurements)
** Current wind speed in m/s (hover to see current wind gust speed)